Time;durP1;ratioP1;P1;durP2;ratioP2;P2;SDS_P1;SDS_P2;PMS_P1;PMS_P2;Temp;Humidity;BMP_temperature;BMP_pressure;BME280_temperature;BME280_humidity;BME280_pressure;Samples;Min_cycle;Max_cycle;Signal;HPM_P1;HPM_P2
2023/05/08 00:01:07;;;;;;;7.05;5.22;;;12.10;99.90;;;;;;5034254;28;20053;-64
2023/05/08 00:03:33;;;;;;;7.60;4.72;;;12.50;1.00;;;;;;5034022;28;20154;-64
2023/05/08 00:05:58;;;;;;;8.55;5.05;;;12.00;99.90;;;;;;5035744;28;20425;-65
2023/05/08 00:08:24;;;;;;;8.30;4.57;;;12.00;99.90;;;;;;5035715;28;20042;-65
2023/05/08 00:10:49;;;;;;;7.60;5.13;;;12.00;99.90;;;;;;5034436;28;20481;-65
2023/05/08 00:13:15;;;;;;;8.20;4.88;;;11.90;99.90;;;;;;5035658;28;20516;-65
2023/05/08 00:15:41;;;;;;;9.38;4.85;;;11.90;99.90;;;;;;5035546;28;20047;-65
2023/05/08 00:18:06;;;;;;;7.13;4.60;;;12.00;1.00;;;;;;5035523;28;20053;-64
2023/05/08 00:20:33;;;;;;;7.25;5.10;;;11.90;99.90;;;;;;5035540;28;20454;-65
2023/05/08 00:22:59;;;;;;;7.78;4.80;;;11.80;99.90;;;;;;5035457;28;20452;-64
2023/05/08 00:25:26;;;;;;;8.38;5.00;;;11.80;99.90;;;;;;5035340;28;20041;-64
2023/05/08 00:27:52;;;;;;;8.90;4.63;;;11.80;99.90;;;;;;5035402;28;20064;-65
2023/05/08 00:30:17;;;;;;;7.15;4.85;;;11.70;1.00;;;;;;5035326;28;20473;-65
2023/05/08 00:32:43;;;;;;;7.00;4.70;;;11.70;1.00;;;;;;5034987;28;20044;-64
2023/05/08 00:35:09;;;;;;;8.48;4.60;;;11.60;1.00;;;;;;5034930;28;20045;-65
2023/05/08 00:37:36;;;;;;;8.45;4.88;;;11.60;1.00;;;;;;5035171;28;20124;-65
2023/05/08 00:40:02;;;;;;;7.82;5.43;;;11.50;31.90;;;;;;5035210;28;20412;-65
2023/05/08 00:42:28;;;;;;;8.35;5.40;;;11.50;1.00;;;;;;5035142;28;20038;-65
2023/05/08 00:44:54;;;;;;;8.13;4.60;;;11.50;9.00;;;;;;5034694;28;20048;-65
2023/05/08 00:47:20;;;;;;;8.40;5.28;;;12.50;84.10;;;;;;5034781;28;20041;-65
2023/05/08 00:49:46;;;;;;;8.07;5.38;;;11.50;99.90;;;;;;5035031;28;20033;-65
2023/05/08 00:52:12;;;;;;;10.23;5.72;;;11.50;99.90;;;;;;5034109;28;20056;-65
2023/05/08 00:54:38;;;;;;;6.88;4.63;;;11.40;99.90;;;;;;5034856;28;20393;-65
2023/05/08 00:57:07;;;;;;;11.52;5.78;;;11.40;99.90;;;;;;5034796;28;20049;-65
2023/05/08 00:59:34;;;;;;;8.60;4.90;;;11.40;99.90;;;;;;5034801;28;20401;-66
2023/05/08 01:02:00;;;;;;;10.32;5.55;;;11.30;99.90;;;;;;5034688;28;20391;-64
2023/05/08 01:04:29;;;;;;;9.40;4.80;;;11.30;99.90;;;;;;5034207;28;20137;-65
2023/05/08 01:06:54;;;;;;;8.55;5.00;;;11.70;99.90;;;;;;5033090;28;20037;-65
2023/05/08 01:09:20;;;;;;;7.15;5.20;;;11.30;1.00;;;;;;5034231;28;20096;-64
2023/05/08 01:12:12;;;;;;;6.93;4.50;;;11.20;64.00;;;;;;5034573;28;20065;-64
2023/05/08 01:15:05;;;;;;;10.73;4.72;;;11.20;99.90;;;;;;5034147;28;20069;-64
2023/05/08 01:17:56;;;;;;;7.15;4.75;;;11.20;1.00;;;;;;5034147;28;20041;-64
2023/05/08 01:20:33;;;;;;;8.77;5.18;;;11.10;1.00;;;;;;5034102;28;20044;-66
2023/05/08 01:23:36;;;;;;;7.45;4.57;;;11.10;1.00;;;;;;5034235;28;20493;-64
2023/05/08 01:26:02;;;;;;;8.52;5.20;;;11.10;1.00;;;;;;5034282;28;20393;-65
2023/05/08 01:29:00;;;;;;;11.20;5.30;;;11.00;8.60;;;;;;5034210;28;20041;-65
2023/05/08 01:31:46;;;;;;;10.63;4.68;;;11.10;96.60;;;;;;5034078;28;20033;-65
2023/05/08 01:34:22;;;;;;;7.82;5.13;;;11.00;99.90;;;;;;5034029;28;20037;-65
2023/05/08 01:36:53;;;;;;;8.45;5.63;;;11.00;99.90;;;;;;5033950;28;20120;-65
2023/05/08 01:39:44;;;;;;;9.20;5.10;;;10.90;99.90;;;;;;5033695;28;20047;-65
2023/05/08 01:42:22;;;;;;;9.50;5.18;;;10.90;99.90;;;;;;5033605;28;20050;-64
2023/05/08 01:44:52;;;;;;;9.70;4.63;;;10.90;48.00;;;;;;5033816;28;20049;-66
2023/05/08 01:47:21;;;;;;;7.90;5.43;;;10.90;1.00;;;;;;5033833;28;20469;-65
2023/05/08 01:49:52;;;;;;;10.23;5.20;;;10.80;99.90;;;;;;5033725;28;20037;-66
2023/05/08 01:52:45;;;;;;;10.65;4.55;;;10.80;1.00;;;;;;5033393;28;20045;-66
2023/05/08 01:55:19;;;;;;;6.75;5.07;;;10.80;69.90;;;;;;5029081;28;20045;-65
2023/05/08 01:57:49;;;;;;;6.60;4.55;;;10.80;99.90;;;;;;5033393;28;20405;-66
2023/05/08 02:00:19;;;;;;;10.52;5.00;;;10.80;99.90;;;;;;5033591;28;20033;-66
2023/05/08 02:02:48;;;;;;;8.33;5.50;;;10.80;99.90;;;;;;5051990;22;20063;-66
2023/05/08 02:05:15;;;;;;;11.07;6.13;;;11.90;1.00;;;;;;5053695;28;20045;-66
2023/05/08 02:07:42;;;;;;;7.93;5.25;;;10.70;1.00;;;;;;5053401;28;20043;-66
2023/05/08 02:10:10;;;;;;;9.77;5.00;;;10.70;99.90;;;;;;5053138;28;20041;-66
2023/05/08 02:12:36;;;;;;;7.80;5.15;;;10.60;99.90;;;;;;5053354;28;20037;-66
2023/05/08 02:15:03;;;;;;;9.80;4.90;;;10.60;99.90;;;;;;5053369;28;20554;-66
2023/05/08 02:17:30;;;;;;;13.10;5.20;;;10.60;99.90;;;;;;5052108;28;20095;-66
2023/05/08 02:19:57;;;;;;;8.65;4.93;;;10.60;99.90;;;;;;5053296;28;20041;-66
2023/05/08 02:22:24;;;;;;;9.15;5.30;;;10.60;99.90;;;;;;5052976;28;20041;-66
2023/05/08 02:24:54;;;;;;;7.57;4.63;;;11.50;1.00;;;;;;5053136;28;20116;-66
2023/05/08 02:27:25;;;;;;;7.15;5.15;;;10.50;99.90;;;;;;5053228;28;20047;-66
2023/05/08 02:29:52;;;;;;;8.95;4.85;;;10.50;99.90;;;;;;5053187;28;20039;-66
2023/05/08 02:32:19;;;;;;;9.07;4.90;;;10.40;99.90;;;;;;5053037;28;20047;-66
2023/05/08 02:34:47;;;;;;;7.85;5.07;;;10.40;99.90;;;;;;5053069;28;20076;-64
2023/05/08 02:37:15;;;;;;;9.23;5.60;;;10.50;99.90;;;;;;5053030;28;20151;-65
2023/05/08 02:39:42;;;;;;;8.65;4.93;;;10.40;99.90;;;;;;5052986;28;20048;-65
2023/05/08 02:42:08;;;;;;;7.95;4.60;;;10.50;99.90;;;;;;5052947;28;20049;-65
2023/05/08 02:44:34;;;;;;;9.77;5.53;;;10.40;99.90;;;;;;5052908;28;20507;-65
2023/05/08 02:47:20;;;;;;;7.28;4.63;;;10.40;99.90;;;;;;5052948;28;20041;-65
2023/05/08 02:49:52;;;;;;;6.75;4.88;;;10.40;99.90;;;;;;5053030;28;20033;-65
2023/05/08 02:52:34;;;;;;;7.55;4.63;;;11.20;99.90;;;;;;5051386;28;20045;-65
2023/05/08 02:55:14;;;;;;;10.10;5.13;;;10.40;99.90;;;;;;5051632;28;20059;-65
2023/05/08 02:57:52;;;;;;;9.98;5.03;;;10.30;99.90;;;;;;5052841;28;20040;-65
2023/05/08 03:00:21;;;;;;;8.45;5.05;;;10.30;99.90;;;;;;5052796;28;20087;-65
2023/05/08 03:02:51;;;;;;;6.85;4.95;;;10.30;99.90;;;;;;5052536;28;20463;-65
2023/05/08 03:05:23;;;;;;;8.25;4.88;;;10.20;99.90;;;;;;5052451;28;20041;-66
2023/05/08 03:07:53;;;;;;;8.07;4.93;;;10.30;89.60;;;;;;5052738;28;20112;-66
2023/05/08 03:10:23;;;;;;;7.80;4.95;;;10.30;99.90;;;;;;5052748;28;20037;-65
2023/05/08 03:12:52;;;;;;;7.32;4.80;;;10.20;99.90;;;;;;5051537;28;20399;-65
2023/05/08 03:15:25;;;;;;;7.65;4.88;;;10.30;99.90;;;;;;5054998;28;20049;-64
2023/05/08 03:17:57;;;;;;;7.88;4.70;;;10.30;99.90;;;;;;5056604;28;20510;-64
2023/05/08 03:20:25;;;;;;;8.93;4.95;;;10.20;1.00;;;;;;5056595;28;20037;-64
2023/05/08 03:22:52;;;;;;;7.10;4.40;;;10.30;99.90;;;;;;5056347;28;20052;-65
2023/05/08 03:25:20;;;;;;;10.38;4.95;;;10.20;99.90;;;;;;5056438;28;20094;-65
2023/05/08 03:27:47;;;;;;;9.45;5.28;;;10.20;99.90;;;;;;5056246;28;20052;-64
2023/05/08 03:30:14;;;;;;;10.23;5.50;;;10.20;1.00;;;;;;5056206;28;20033;-66
2023/05/08 03:32:41;;;;;;;7.18;4.30;;;10.20;99.90;;;;;;5056318;28;20047;-65
2023/05/08 03:35:08;;;;;;;7.80;4.95;;;10.20;99.90;;;;;;5056341;28;20075;-65
2023/05/08 03:37:34;;;;;;;7.90;5.28;;;10.20;99.90;;;;;;5056203;28;20041;-65
2023/05/08 03:40:00;;;;;;;8.30;5.25;;;10.10;99.90;;;;;;5056252;28;20203;-64
2023/05/08 03:42:26;;;;;;;9.60;5.10;;;10.10;65.60;;;;;;5056173;28;20115;-65
2023/05/08 03:44:52;;;;;;;7.68;5.13;;;10.10;99.90;;;;;;5056052;28;20081;-65
2023/05/08 03:47:20;;;;;;;11.10;5.53;;;10.10;99.90;;;;;;5056112;28;20495;-65
2023/05/08 03:49:47;;;;;;;9.70;4.68;;;10.00;99.90;;;;;;5056076;28;20460;-65
2023/05/08 03:52:14;;;;;;;8.32;5.43;;;10.00;1.00;;;;;;5055653;28;20112;-64
2023/05/08 03:54:41;;;;;;;9.00;4.72;;;10.00;99.90;;;;;;5055977;28;20102;-65
2023/05/08 03:57:07;;;;;;;8.73;4.85;;;10.00;99.90;;;;;;5055992;28;20514;-64
2023/05/08 03:59:53;;;;;;;8.77;4.65;;;9.90;99.90;;;;;;5055900;28;20445;-65
2023/05/08 04:02:32;;;;;;;9.35;5.53;;;9.90;97.40;;;;;;5054020;28;20037;-65
2023/05/08 04:05:07;;;;;;;8.27;5.10;;;9.90;99.90;;;;;;5055430;28;20044;-65
2023/05/08 04:07:49;;;;;;;8.52;5.05;;;9.90;93.10;;;;;;5055672;28;20044;-65
2023/05/08 04:10:30;;;;;;;7.57;4.40;;;9.80;99.90;;;;;;5055389;28;20040;-65
2023/05/08 04:13:07;;;;;;;7.30;4.65;;;9.80;99.90;;;;;;5055392;28;20091;-65
2023/05/08 04:16:06;;;;;;;5.93;4.88;;;9.80;99.90;;;;;;5054337;28;20049;-65
2023/05/08 04:18:35;;;;;;;5.53;3.88;;;9.80;99.90;;;;;;5055540;28;20040;-65
2023/05/08 04:21:04;;;;;;;7.10;4.32;;;9.80;99.90;;;;;;5055507;28;20357;-65
2023/05/08 04:23:31;;;;;;;7.70;5.57;;;9.80;99.90;;;;;;5053853;28;20449;-65
2023/05/08 04:25:59;;;;;;;6.72;4.30;;;9.80;99.90;;;;;;5054198;28;20115;-65
2023/05/08 04:28:25;;;;;;;7.47;4.88;;;9.70;99.90;;;;;;5055337;28;20090;-65
2023/05/08 04:30:51;;;;;;;6.53;4.50;;;9.80;98.30;;;;;;5055204;28;20036;-65
2023/05/08 04:33:17;;;;;;;7.55;4.57;;;9.80;99.90;;;;;;5053985;28;20043;-66
2023/05/08 04:35:44;;;;;;;10.73;4.50;;;9.80;99.90;;;;;;5054894;28;20400;-66
2023/05/08 04:38:10;;;;;;;7.80;4.70;;;9.80;99.90;;;;;;5055153;28;20502;-66
2023/05/08 04:40:36;;;;;;;10.27;4.25;;;9.80;99.90;;;;;;5055104;28;20052;-66
2023/05/08 04:43:02;;;;;;;8.60;4.82;;;9.80;99.90;;;;;;5053799;28;20115;-65
2023/05/08 04:45:27;;;;;;;6.78;4.60;;;9.80;49.60;;;;;;5053331;28;20045;-66
2023/05/08 04:47:53;;;;;;;9.00;5.32;;;9.90;1.00;;;;;;5054951;28;20102;-66
2023/05/08 04:50:19;;;;;;;8.43;4.72;;;9.90;99.90;;;;;;5054910;28;20044;-66
2023/05/08 04:52:44;;;;;;;9.93;4.75;;;9.90;1.00;;;;;;5054836;28;20036;-65
2023/05/08 04:55:10;;;;;;;7.28;4.63;;;10.00;1.00;;;;;;5054915;28;20045;-65
2023/05/08 04:57:36;;;;;;;5.93;4.53;;;10.00;99.90;;;;;;5053594;28;20076;-65
2023/05/08 05:00:02;;;;;;;8.07;4.75;;;10.00;1.00;;;;;;5053214;28;20080;-66
2023/05/08 05:02:27;;;;;;;6.82;4.28;;;10.10;99.90;;;;;;5054318;28;20091;-65
2023/05/08 05:04:53;;;;;;;7.68;4.22;;;10.10;84.20;;;;;;5054318;28;20049;-66
2023/05/08 05:07:18;;;;;;;9.75;4.88;;;10.20;69.30;;;;;;5054594;28;20075;-66
2023/05/08 05:09:44;;;;;;;6.88;4.20;;;10.30;99.90;;;;;;5054574;28;20036;-66
2023/05/08 05:12:10;;;;;;;7.88;4.55;;;10.30;99.90;;;;;;5054501;28;20056;-66
2023/05/08 05:14:35;;;;;;;7.47;4.38;;;10.30;99.90;;;;;;5054480;28;20063;-66
2023/05/08 05:17:01;;;;;;;6.47;4.43;;;10.40;1.00;;;;;;5054442;28;20045;-67
2023/05/08 05:19:27;;;;;;;6.53;4.25;;;10.40;93.80;;;;;;5052795;28;20555;-66
2023/05/08 05:21:52;;;;;;;7.15;4.03;;;10.50;99.90;;;;;;5054273;28;20045;-70
2023/05/08 05:24:18;;;;;;;8.93;4.63;;;10.50;1.00;;;;;;5053046;28;20104;-66
2023/05/08 05:26:44;;;;;;;6.97;4.22;;;10.50;99.90;;;;;;5054162;28;20033;-67
2023/05/08 05:29:10;;;;;;;18.83;5.05;;;10.60;99.90;;;;;;5053864;28;20076;-65
2023/05/08 05:31:36;;;;;;;9.23;4.30;;;10.70;28.80;;;;;;5054060;28;20094;-65
2023/05/08 05:34:01;;;;;;;7.80;4.35;;;10.70;1.00;;;;;;5054063;28;20510;-66
2023/05/08 05:36:28;;;;;;;6.70;4.60;;;10.80;99.90;;;;;;5053816;28;20044;-65
2023/05/08 05:38:53;;;;;;;10.60;4.97;;;10.80;99.90;;;;;;5053384;28;20094;-66
2023/05/08 05:41:19;;;;;;;7.35;4.47;;;10.90;99.90;;;;;;5053851;28;20040;-68
2023/05/08 05:43:44;;;;;;;6.57;4.38;;;11.00;99.90;;;;;;5053847;28;20048;-65
2023/05/08 05:46:10;;;;;;;9.50;4.50;;;11.00;99.90;;;;;;5053805;28;20041;-67
2023/05/08 05:48:36;;;;;;;11.32;5.00;;;11.20;1.00;;;;;;5053739;28;20523;-65
2023/05/08 05:51:02;;;;;;;7.68;4.90;;;11.10;99.90;;;;;;5053755;28;20108;-65
2023/05/08 05:53:28;;;;;;;5.97;4.40;;;11.30;99.90;;;;;;5052574;28;20053;-66
2023/05/08 05:55:53;;;;;;;6.50;4.10;;;11.40;99.90;;;;;;5053347;28;20045;-65
2023/05/08 05:58:19;;;;;;;5.97;4.70;;;11.50;99.90;;;;;;5053532;28;20037;-67
2023/05/08 06:00:46;;;;;;;8.57;4.93;;;11.60;99.90;;;;;;5053618;28;20498;-67
2023/05/08 06:03:12;;;;;;;9.02;5.00;;;11.60;99.90;;;;;;5053141;28;20056;-66
2023/05/08 06:05:39;;;;;;;9.45;4.30;;;11.70;99.90;;;;;;5053565;28;20407;-66
2023/05/08 06:08:08;;;;;;;5.80;4.15;;;11.70;1.00;;;;;;5053170;28;20049;-72
2023/05/08 06:10:35;;;;;;;5.93;4.00;;;11.70;99.90;;;;;;5051895;28;20441;-65
2023/05/08 06:13:01;;;;;;;6.60;4.97;;;11.80;1.00;;;;;;5051998;28;20045;-65
2023/05/08 06:15:26;;;;;;;8.30;4.75;;;11.90;99.90;;;;;;5053314;28;20491;-65
2023/05/08 06:17:53;;;;;;;6.22;4.47;;;12.00;99.90;;;;;;5053214;28;20423;-67
2023/05/08 06:20:18;;;;;;;7.28;4.28;;;11.90;99.90;;;;;;5053146;28;20484;-65
2023/05/08 06:22:44;;;;;;;8.32;4.50;;;12.00;99.90;;;;;;5053160;28;20040;-65
2023/05/08 06:25:10;;;;;;;7.85;4.40;;;12.70;99.90;;;;;;5051594;28;20040;-65
2023/05/08 06:27:36;;;;;;;6.05;4.22;;;11.80;99.90;;;;;;5053058;28;20044;-65
2023/05/08 06:30:03;;;;;;;9.80;4.88;;;11.60;99.90;;;;;;5052985;28;20072;-65
2023/05/08 06:32:29;;;;;;;5.60;4.00;;;12.10;72.60;;;;;;5051518;28;20083;-65
2023/05/08 06:34:54;;;;;;;7.88;4.47;;;11.90;99.90;;;;;;5053108;28;20060;-65
2023/05/08 06:37:20;;;;;;;6.35;4.53;;;11.90;69.30;;;;;;5052750;28;20040;-65
2023/05/08 06:39:46;;;;;;;8.35;4.45;;;11.80;99.90;;;;;;5052681;28;20403;-65
2023/05/08 06:42:11;;;;;;;7.63;4.97;;;11.80;99.90;;;;;;5052897;28;20044;-65
2023/05/08 06:44:37;;;;;;;7.40;4.45;;;12.50;99.90;;;;;;5052865;28;20067;-66
2023/05/08 06:47:03;;;;;;;5.75;4.30;;;11.40;99.90;;;;;;5052902;28;20112;-67
2023/05/08 06:49:28;;;;;;;6.70;4.35;;;11.60;99.90;;;;;;5050902;28;20041;-65
2023/05/08 06:51:54;;;;;;;8.20;5.00;;;11.60;99.90;;;;;;5052594;28;20091;-65
2023/05/08 06:54:19;;;;;;;6.22;4.07;;;12.40;99.90;;;;;;5052817;28;20499;-65
2023/05/08 06:56:45;;;;;;;6.30;4.55;;;11.60;99.90;;;;;;5052827;28;20060;-66
2023/05/08 06:59:11;;;;;;;8.85;4.55;;;11.50;99.90;;;;;;5052730;28;20120;-65
2023/05/08 07:01:37;;;;;;;7.72;4.07;;;11.50;99.90;;;;;;5052474;28;20451;-66
2023/05/08 07:04:03;;;;;;;6.68;4.60;;;11.70;75.70;;;;;;5052414;28;20083;-65
2023/05/08 07:06:30;;;;;;;6.97;4.55;;;11.80;90.30;;;;;;5052698;28;20037;-65
2023/05/08 07:08:56;;;;;;;6.82;4.53;;;11.70;99.40;;;;;;5052450;28;20079;-65
2023/05/08 07:11:21;;;;;;;7.65;4.68;;;11.60;1.00;;;;;;5052676;28;20076;-65
2023/05/08 07:13:47;;;;;;;6.50;4.28;;;11.90;1.00;;;;;;5052663;28;20049;-65
2023/05/08 07:16:14;;;;;;;8.70;5.20;;;12.00;9.20;;;;;;5051066;28;20044;-65
2023/05/08 07:18:40;;;;;;;5.43;3.83;;;12.20;1.00;;;;;;5052526;28;20049;-65
2023/05/08 07:21:06;;;;;;;7.03;4.47;;;12.20;1.00;;;;;;5052246;28;20037;-65
2023/05/08 07:23:32;;;;;;;8.32;5.05;;;12.20;99.90;;;;;;5052158;28;20060;-65
2023/05/08 07:25:58;;;;;;;7.72;4.88;;;12.00;99.90;;;;;;5052160;28;20041;-66
2023/05/08 07:28:23;;;;;;;8.18;5.22;;;12.40;99.90;;;;;;5051258;28;20098;-65
2023/05/08 07:30:49;;;;;;;9.18;4.80;;;12.50;99.90;;;;;;5052174;28;20489;-66
2023/05/08 07:33:15;;;;;;;7.05;5.07;;;12.60;99.90;;;;;;5050912;28;20049;-66
2023/05/08 07:35:41;;;;;;;9.10;5.22;;;12.70;99.90;;;;;;5052377;28;20025;-66
2023/05/08 07:38:07;;;;;;;8.88;4.85;;;12.80;99.90;;;;;;5052433;28;20040;-65
2023/05/08 07:40:33;;;;;;;10.05;5.90;;;13.00;99.90;;;;;;5052423;28;20112;-66
2023/05/08 07:42:59;;;;;;;11.48;5.22;;;13.10;99.90;;;;;;5052364;28;20130;-65
2023/05/08 07:45:24;;;;;;;7.07;4.75;;;13.30;90.00;;;;;;5052829;28;20048;-65
2023/05/08 07:47:54;;;;;;;6.68;4.47;;;13.50;74.30;;;;;;5052345;28;20029;-65
2023/05/08 07:50:21;;;;;;;11.95;5.38;;;13.60;99.90;;;;;;5052311;28;20447;-65
2023/05/08 07:52:47;;;;;;;7.22;4.53;;;13.70;1.00;;;;;;5052242;28;20454;-64
2023/05/08 07:55:13;;;;;;;9.50;5.22;;;13.80;1.00;;;;;;5052198;28;20121;-64
2023/05/08 07:57:40;;;;;;;8.70;5.20;;;14.50;99.90;;;;;;5052158;28;20073;-64
2023/05/08 08:00:07;;;;;;;10.05;6.05;;;13.90;99.90;;;;;;5052708;28;20408;-64
2023/05/08 08:02:33;;;;;;;7.80;4.85;;;13.90;99.90;;;;;;5055616;28;20111;-65
2023/05/08 08:04:59;;;;;;;8.43;5.07;;;14.00;99.90;;;;;;5055729;28;20413;-64
2023/05/08 08:07:25;;;;;;;8.48;5.60;;;14.00;99.90;;;;;;5055753;28;20033;-65
2023/05/08 08:09:50;;;;;;;6.15;4.65;;;14.90;99.90;;;;;;5055694;28;20087;-64
2023/05/08 08:12:16;;;;;;;6.70;5.45;;;14.10;99.90;;;;;;5055622;28;20072;-64
2023/05/08 08:14:41;;;;;;;7.40;5.75;;;14.80;99.90;;;;;;5055244;28;20499;-63
2023/05/08 08:17:07;;;;;;;7.93;5.35;;;14.20;99.90;;;;;;5055516;28;20041;-63
2023/05/08 08:19:33;;;;;;;10.07;5.97;;;14.40;99.90;;;;;;5055216;28;20491;-64
2023/05/08 08:21:58;;;;;;;7.22;4.55;;;14.50;99.90;;;;;;5055437;28;20048;-65
2023/05/08 08:24:24;;;;;;;9.00;5.35;;;14.90;99.90;;;;;;5055318;28;20040;-64
2023/05/08 08:26:50;;;;;;;9.30;5.75;;;15.20;99.90;;;;;;5055132;28;20029;-64
2023/05/08 08:29:16;;;;;;;9.90;5.32;;;17.50;99.90;;;;;;5055282;28;20546;-65
2023/05/08 08:31:41;;;;;;;10.05;6.15;;;15.70;99.90;;;;;;5054950;28;20045;-65
2023/05/08 08:34:07;;;;;;;11.23;6.43;;;16.60;99.90;;;;;;5054918;28;20106;-65
2023/05/08 08:36:33;;;;;;;7.13;5.03;;;15.90;99.90;;;;;;5055109;28;20432;-64
2023/05/08 08:38:59;;;;;;;8.90;6.03;;;16.00;99.90;;;;;;5055112;28;20045;-64
2023/05/08 08:41:26;;;;;;;8.25;6.03;;;16.00;99.90;;;;;;5054861;28;20571;-64
2023/05/08 08:43:53;;;;;;;9.93;5.80;;;16.00;99.90;;;;;;5055028;28;20526;-64
2023/05/08 08:46:23;;;;;;;7.75;5.18;;;16.20;99.90;;;;;;5055037;28;20045;-64
2023/05/08 08:48:52;;;;;;;9.55;6.28;;;17.10;99.90;;;;;;5054878;28;20045;-65
2023/05/08 08:51:34;;;;;;;8.07;4.93;;;16.30;99.90;;;;;;5053384;28;20043;-65
2023/05/08 08:54:08;;;;;;;8.82;4.95;;;16.30;99.90;;;;;;5053653;28;20083;-65
2023/05/08 08:56:37;;;;;;;8.43;5.03;;;16.90;99.90;;;;;;5054785;28;20037;-65
2023/05/08 08:59:04;;;;;;;9.77;5.93;;;16.50;99.90;;;;;;5054747;28;20060;-64
2023/05/08 09:01:34;;;;;;;7.90;5.15;;;16.70;99.90;;;;;;5054650;28;20052;-68
2023/05/08 09:04:00;;;;;;;9.45;4.95;;;17.00;99.90;;;;;;5054136;28;20183;-64
2023/05/08 09:06:27;;;;;;;10.75;5.75;;;18.00;99.90;;;;;;5053151;28;20544;-64
2023/05/08 09:08:57;;;;;;;8.32;5.63;;;17.40;99.90;;;;;;5054394;28;20041;-66
2023/05/08 09:11:23;;;;;;;10.68;5.43;;;17.70;99.90;;;;;;5054384;28;20170;-65
2023/05/08 09:13:50;;;;;;;7.70;5.45;;;17.80;99.90;;;;;;5053757;28;20075;-64
2023/05/08 09:16:16;;;;;;;8.43;5.50;;;17.90;99.90;;;;;;5054449;28;20123;-64
2023/05/08 09:18:41;;;;;;;10.18;5.80;;;17.90;99.90;;;;;;5054307;28;20524;-64
2023/05/08 09:21:07;;;;;;;7.60;5.88;;;17.90;99.90;;;;;;5054241;28;20049;-64
2023/05/08 09:23:35;;;;;;;9.73;6.20;;;17.80;99.90;;;;;;5054035;28;20045;-65
2023/05/08 09:26:01;;;;;;;8.98;6.03;;;18.20;99.90;;;;;;5054114;28;20048;-64
2023/05/08 09:28:27;;;;;;;8.98;5.55;;;17.90;99.90;;;;;;5054145;28;20518;-64
2023/05/08 09:30:56;;;;;;;9.43;5.30;;;18.60;99.90;;;;;;5054022;28;20380;-65
2023/05/08 09:33:27;;;;;;;9.68;5.63;;;18.00;99.90;;;;;;5053771;28;20041;-65
2023/05/08 09:35:53;;;;;;;;;;;17.70;99.90;;;;;;5054502;28;20440;-65
2023/05/08 09:38:37;;;;;;;8.38;5.65;;;18.00;99.90;;;;;;5052448;28;19967;-65
2023/05/08 09:41:10;;;;;;;8.20;5.28;;;18.10;99.90;;;;;;5053873;28;20045;-65
2023/05/08 09:43:36;;;;;;;7.45;5.63;;;18.00;99.90;;;;;;5053493;28;20099;-65
2023/05/08 09:46:22;;;;;;;10.45;6.30;;;18.10;99.90;;;;;;5052578;28;20499;-65
2023/05/08 09:48:52;;;;;;;9.02;5.90;;;18.10;99.90;;;;;;5052085;28;20040;-65
2023/05/08 09:51:18;;;;;;;9.40;5.63;;;;;;;;;;5053674;28;20102;-65
2023/05/08 09:53:44;;;;;;;7.22;4.97;;;18.40;99.90;;;;;;5053636;28;20431;-65
2023/05/08 09:56:10;;;;;;;9.55;5.45;;;18.40;99.90;;;;;;5053562;28;20037;-65
2023/05/08 09:58:39;;;;;;;9.88;5.88;;;18.50;99.90;;;;;;5053506;28;20044;-65
2023/05/08 10:01:06;;;;;;;9.25;5.90;;;18.40;99.90;;;;;;5053183;28;20120;-66
2023/05/08 10:03:48;;;;;;;9.30;5.63;;;18.50;99.90;;;;;;5053130;28;20451;-65
2023/05/08 10:06:15;;;;;;;11.73;6.32;;;18.60;99.90;;;;;;5053441;28;20077;-64
2023/05/08 10:08:40;;;;;;;9.00;5.80;;;18.70;99.90;;;;;;5053087;28;20033;-65
2023/05/08 10:11:20;;;;;;;10.63;5.20;;;18.70;99.90;;;;;;5053286;28;20040;-65
2023/05/08 10:13:46;;;;;;;8.45;5.53;;;18.80;99.90;;;;;;5053401;28;20040;-65
2023/05/08 10:16:16;;;;;;;11.70;6.85;;;18.90;99.90;;;;;;5053329;28;20099;-64
2023/05/08 10:18:48;;;;;;;8.90;5.95;;;19.00;99.90;;;;;;5053295;28;20445;-63
2023/05/08 10:21:15;;;;;;;10.68;6.20;;;18.80;99.90;;;;;;5053180;28;20041;-64
2023/05/08 10:23:42;;;;;;;9.05;6.05;;;18.70;99.90;;;;;;5051962;28;20043;-69
2023/05/08 10:26:13;;;;;;;8.77;5.25;;;18.70;99.90;;;;;;5053047;28;20048;-66
2023/05/08 10:29:04;;;;;;;11.70;6.15;;;19.00;99.90;;;;;;5053037;28;20060;-63
2023/05/08 10:31:34;;;;;;;9.88;5.50;;;19.00;99.90;;;;;;5052917;28;20048;-63
2023/05/08 10:34:00;;;;;;;10.65;6.43;;;19.10;99.90;;;;;;5052672;28;20041;-64
2023/05/08 10:36:27;;;;;;;8.10;5.78;;;19.20;99.90;;;;;;5053004;28;20037;-64
2023/05/08 10:38:53;;;;;;;10.55;5.65;;;19.30;99.90;;;;;;5053016;28;20548;-64
2023/05/08 10:41:20;;;;;;;10.38;6.50;;;20.20;99.90;;;;;;5052894;28;20488;-64
2023/05/08 10:43:48;;;;;;;9.27;5.78;;;19.30;99.90;;;;;;5052885;28;20045;-64
2023/05/08 10:46:28;;;;;;;10.90;6.18;;;19.10;99.90;;;;;;5052595;28;20037;-64
2023/05/08 10:48:58;;;;;;;10.55;6.40;;;19.20;99.90;;;;;;5052833;28;20037;-64
2023/05/08 10:51:40;;;;;;;7.10;5.38;;;19.30;99.90;;;;;;5051249;28;20369;-64
2023/05/08 10:54:47;;;;;;;12.07;6.95;;;19.40;99.90;;;;;;5052509;28;20056;-65
2023/05/08 10:57:14;;;;;;;10.38;6.00;;;19.40;99.90;;;;;;5031943;28;20048;-67
2023/05/08 10:59:45;;;;;;;11.38;6.50;;;19.50;99.90;;;;;;5052698;28;20041;-65
2023/05/08 11:02:11;;;;;;;12.10;6.60;;;19.50;99.90;;;;;;5052680;28;20163;-64
2023/05/08 11:04:37;;;;;;;13.45;6.30;;;19.60;99.90;;;;;;5052165;28;20136;-64
2023/05/08 11:07:03;;;;;;;12.57;6.68;;;20.10;99.90;;;;;;5052696;28;20048;-63
2023/05/08 11:09:41;;;;;;;11.57;7.07;;;19.50;99.90;;;;;;5052640;28;20036;-63
2023/05/08 11:12:15;;;;;;;10.65;6.25;;;19.60;99.90;;;;;;5051102;28;20045;-63
2023/05/08 11:14:42;;;;;;;8.85;5.45;;;19.70;99.90;;;;;;5052631;28;20049;-64
2023/05/08 11:17:08;;;;;;;10.15;6.72;;;19.70;99.90;;;;;;5052628;28;20568;-64
2023/05/08 11:19:35;;;;;;;9.88;6.32;;;19.80;99.90;;;;;;5052511;28;20067;-64
2023/05/08 11:22:22;;;;;;;9.98;6.15;;;20.20;99.90;;;;;;5052259;28;20060;-64
2023/05/08 11:25:05;;;;;;;9.55;5.88;;;19.90;99.90;;;;;;5052532;28;20049;-64
2023/05/08 11:27:38;;;;;;;10.23;6.18;;;20.10;99.90;;;;;;5052481;28;20060;-64
2023/05/08 11:30:23;;;;;;;8.68;5.97;;;20.10;99.90;;;;;;5052238;28;20044;-64
2023/05/08 11:33:04;;;;;;;9.35;5.95;;;20.10;99.90;;;;;;5051178;28;20503;-64
2023/05/08 11:35:48;;;;;;;10.75;6.45;;;20.20;99.90;;;;;;5053268;28;20049;-64
2023/05/08 11:38:24;;;;;;;10.20;6.00;;;20.40;99.90;;;;;;5056215;28;20076;-62
2023/05/08 11:40:59;;;;;;;9.05;5.95;;;20.30;99.90;;;;;;5055921;28;20041;-62
2023/05/08 11:43:31;;;;;;;11.07;6.22;;;20.40;99.90;;;;;;5055961;28;20043;-63
2023/05/08 11:46:13;;;;;;;9.95;6.07;;;20.50;99.90;;;;;;5056164;28;20523;-63
2023/05/08 11:48:39;;;;;;;8.48;5.47;;;20.60;99.90;;;;;;5055805;28;20040;-63
2023/05/08 11:51:05;;;;;;;11.40;6.53;;;20.60;99.90;;;;;;5056038;28;20048;-62
2023/05/08 11:53:31;;;;;;;10.52;6.18;;;20.60;99.90;;;;;;5055937;28;20041;-66
2023/05/08 11:55:58;;;;;;;7.97;4.82;;;20.60;99.90;;;;;;5055857;28;20041;-63
2023/05/08 11:58:24;;;;;;;8.20;5.35;;;20.70;99.90;;;;;;5055566;28;20036;-63
2023/05/08 12:00:50;;;;;;;10.52;5.70;;;20.70;99.90;;;;;;5055745;28;20037;-63
2023/05/08 12:03:21;;;;;;;9.55;5.40;;;20.40;99.90;;;;;;5055328;28;20511;-63
2023/05/08 12:05:48;;;;;;;7.07;5.03;;;20.90;99.90;;;;;;5055653;28;20032;-63
2023/05/08 12:08:15;;;;;;;10.35;5.38;;;21.30;99.90;;;;;;5055799;28;20151;-63
2023/05/08 12:10:50;;;;;;;9.60;5.93;;;21.00;99.90;;;;;;5055614;28;20041;-63
2023/05/08 12:13:27;;;;;;;11.15;5.55;;;22.00;99.90;;;;;;5055598;28;20044;-63
2023/05/08 12:15:59;;;;;;;9.23;5.57;;;21.20;99.90;;;;;;5055250;28;20045;-63
2023/05/08 12:18:28;;;;;;;8.43;5.53;;;21.30;99.90;;;;;;5055154;28;20040;-63
2023/05/08 12:20:59;;;;;;;8.68;5.30;;;21.30;99.90;;;;;;5054131;28;20040;-63
2023/05/08 12:23:26;;;;;;;8.63;5.10;;;21.50;99.90;;;;;;5055009;28;20029;-63
2023/05/08 12:25:55;;;;;;;6.70;4.18;;;21.40;99.90;;;;;;5055337;28;20108;-63
2023/05/08 12:28:21;;;;;;;6.05;3.72;;;21.40;99.90;;;;;;5055207;28;20064;-63
2023/05/08 12:30:47;;;;;;;6.78;3.55;;;21.40;99.90;;;;;;5053709;28;20118;-63
2023/05/08 12:33:13;;;;;;;4.47;3.03;;;21.50;99.90;;;;;;5055145;28;20135;-63
2023/05/08 12:35:39;;;;;;;4.93;2.97;;;22.40;99.90;;;;;;5055112;28;20047;-63
2023/05/08 12:38:06;;;;;;;5.45;3.53;;;21.60;99.90;;;;;;5055096;28;20048;-63
2023/05/08 12:40:34;;;;;;;6.38;3.30;;;22.90;99.90;;;;;;5055000;28;20036;-63
2023/05/08 12:43:01;;;;;;;4.55;3.15;;;21.80;99.90;;;;;;5054931;28;20037;-64
2023/05/08 12:45:29;;;;;;;6.18;3.63;;;21.80;99.90;;;;;;5054889;28;20045;-64
2023/05/08 12:48:21;;;;;;;5.22;3.10;;;21.80;99.90;;;;;;5053988;28;20045;-64
2023/05/08 12:50:47;;;;;;;6.55;3.50;;;21.80;99.90;;;;;;5051785;28;20060;-63
2023/05/08 12:53:15;;;;;;;5.85;3.80;;;22.50;99.90;;;;;;5054685;28;20131;-64
2023/05/08 12:55:51;;;;;;;6.95;3.83;;;22.70;99.90;;;;;;5053347;28;20040;-64
2023/05/08 12:58:17;;;;;;;5.32;3.58;;;22.20;99.90;;;;;;5054870;28;20032;-64